sensor_id;sensor_type;location;lat;lon;timestamp;P1;durP1;ratioP1;P2;durP2;ratioP2
55827;SDS011;41758;51.992;5.890;2024-02-21T00:02:11;32.95;;;21.58;;
55827;SDS011;41758;51.992;5.890;2024-02-21T00:04:37;24.67;;;18.55;;
55827;SDS011;41758;51.992;5.890;2024-02-21T00:07:04;33.97;;;20.83;;
55827;SDS011;41758;51.992;5.890;2024-02-21T00:09:30;25.70;;;18.90;;
55827;SDS011;41758;51.992;5.890;2024-02-21T00:11:56;29.58;;;19.67;;
55827;SDS011;41758;51.992;5.890;2024-02-21T00:14:22;32.92;;;20.38;;
55827;SDS011;41758;51.992;5.890;2024-02-21T00:16:47;27.35;;;19.85;;
55827;SDS011;41758;51.992;5.890;2024-02-21T00:19:13;29.05;;;19.67;;
55827;SDS011;41758;51.992;5.890;2024-02-21T00:21:40;23.38;;;17.58;;
55827;SDS011;41758;51.992;5.890;2024-02-21T00:24:05;30.42;;;20.33;;
55827;SDS011;41758;51.992;5.890;2024-02-21T00:26:31;29.85;;;20.45;;
55827;SDS011;41758;51.992;5.890;2024-02-21T00:28:57;29.85;;;21.63;;
55827;SDS011;41758;51.992;5.890;2024-02-21T00:31:23;30.45;;;20.30;;
55827;SDS011;41758;51.992;5.890;2024-02-21T00:33:49;26.33;;;19.52;;
55827;SDS011;41758;51.992;5.890;2024-02-21T00:36:15;28.20;;;18.83;;
55827;SDS011;41758;51.992;5.890;2024-02-21T00:38:41;26.08;;;19.08;;
55827;SDS011;41758;51.992;5.890;2024-02-21T00:41:07;27.95;;;19.30;;
55827;SDS011;41758;51.992;5.890;2024-02-21T00:43:33;25.45;;;19.33;;
55827;SDS011;41758;51.992;5.890;2024-02-21T00:45:58;24.23;;;18.05;;
55827;SDS011;41758;51.992;5.890;2024-02-21T00:48:24;30.83;;;20.63;;
55827;SDS011;41758;51.992;5.890;2024-02-21T00:50:50;31.10;;;20.92;;
55827;SDS011;41758;51.992;5.890;2024-02-21T00:53:16;26.83;;;18.40;;
55827;SDS011;41758;51.992;5.890;2024-02-21T00:55:42;31.55;;;20.38;;
55827;SDS011;41758;51.992;5.890;2024-02-21T00:58:08;26.23;;;19.48;;
55827;SDS011;41758;51.992;5.890;2024-02-21T01:00:34;26.98;;;19.80;;
55827;SDS011;41758;51.992;5.890;2024-02-21T01:03:00;30.95;;;20.05;;
55827;SDS011;41758;51.992;5.890;2024-02-21T01:05:25;33.03;;;20.58;;
55827;SDS011;41758;51.992;5.890;2024-02-21T01:07:53;27.35;;;19.38;;
55827;SDS011;41758;51.992;5.890;2024-02-21T01:10:18;31.05;;;20.40;;
55827;SDS011;41758;51.992;5.890;2024-02-21T01:12:44;26.65;;;20.33;;
55827;SDS011;41758;51.992;5.890;2024-02-21T01:15:10;27.38;;;19.00;;
55827;SDS011;41758;51.992;5.890;2024-02-21T01:17:36;28.88;;;19.60;;
55827;SDS011;41758;51.992;5.890;2024-02-21T01:20:03;27.60;;;20.05;;
55827;SDS011;41758;51.992;5.890;2024-02-21T01:22:30;28.30;;;19.40;;
55827;SDS011;41758;51.992;5.890;2024-02-21T01:24:56;27.27;;;18.67;;
55827;SDS011;41758;51.992;5.890;2024-02-21T01:27:22;33.15;;;20.27;;
55827;SDS011;41758;51.992;5.890;2024-02-21T01:29:47;31.33;;;19.70;;
55827;SDS011;41758;51.992;5.890;2024-02-21T01:32:15;24.70;;;19.10;;
55827;SDS011;41758;51.992;5.890;2024-02-21T01:34:41;26.67;;;18.98;;
55827;SDS011;41758;51.992;5.890;2024-02-21T01:37:06;28.13;;;18.65;;
55827;SDS011;41758;51.992;5.890;2024-02-21T01:39:32;25.17;;;17.90;;
55827;SDS011;41758;51.992;5.890;2024-02-21T01:41:59;25.50;;;18.65;;
55827;SDS011;41758;51.992;5.890;2024-02-21T01:44:25;21.35;;;16.33;;
55827;SDS011;41758;51.992;5.890;2024-02-21T01:46:51;27.48;;;18.42;;
55827;SDS011;41758;51.992;5.890;2024-02-21T01:49:18;24.13;;;18.20;;
55827;SDS011;41758;51.992;5.890;2024-02-21T01:51:45;27.45;;;18.17;;
55827;SDS011;41758;51.992;5.890;2024-02-21T01:54:11;22.42;;;18.15;;
55827;SDS011;41758;51.992;5.890;2024-02-21T01:56:40;31.17;;;19.55;;
55827;SDS011;41758;51.992;5.890;2024-02-21T01:59:05;24.90;;;18.60;;
55827;SDS011;41758;51.992;5.890;2024-02-21T02:01:31;25.52;;;18.42;;
55827;SDS011;41758;51.992;5.890;2024-02-21T02:03:57;25.05;;;18.80;;
55827;SDS011;41758;51.992;5.890;2024-02-21T02:06:24;28.73;;;19.13;;
55827;SDS011;41758;51.992;5.890;2024-02-21T02:08:50;27.98;;;19.70;;
55827;SDS011;41758;51.992;5.890;2024-02-21T02:11:17;24.33;;;18.08;;
55827;SDS011;41758;51.992;5.890;2024-02-21T02:13:42;26.75;;;17.30;;
55827;SDS011;41758;51.992;5.890;2024-02-21T02:16:08;30.90;;;19.63;;
55827;SDS011;41758;51.992;5.890;2024-02-21T02:18:34;27.50;;;19.48;;
55827;SDS011;41758;51.992;5.890;2024-02-21T02:21:00;30.65;;;19.05;;
55827;SDS011;41758;51.992;5.890;2024-02-21T02:25:55;21.63;;;17.38;;
55827;SDS011;41758;51.992;5.890;2024-02-21T02:28:21;28.95;;;19.25;;
55827;SDS011;41758;51.992;5.890;2024-02-21T02:30:47;27.35;;;19.13;;
55827;SDS011;41758;51.992;5.890;2024-02-21T02:33:13;27.63;;;19.05;;
55827;SDS011;41758;51.992;5.890;2024-02-21T02:35:39;26.25;;;18.73;;
55827;SDS011;41758;51.992;5.890;2024-02-21T02:38:05;26.55;;;18.15;;
55827;SDS011;41758;51.992;5.890;2024-02-21T02:40:31;27.23;;;19.48;;
55827;SDS011;41758;51.992;5.890;2024-02-21T02:43:00;28.00;;;19.52;;
55827;SDS011;41758;51.992;5.890;2024-02-21T02:45:26;25.15;;;18.75;;
55827;SDS011;41758;51.992;5.890;2024-02-21T02:47:52;29.88;;;19.55;;
55827;SDS011;41758;51.992;5.890;2024-02-21T02:50:19;27.42;;;19.33;;
55827;SDS011;41758;51.992;5.890;2024-02-21T02:52:45;23.88;;;18.58;;
55827;SDS011;41758;51.992;5.890;2024-02-21T02:55:11;22.40;;;17.63;;
55827;SDS011;41758;51.992;5.890;2024-02-21T02:57:37;27.67;;;19.20;;
55827;SDS011;41758;51.992;5.890;2024-02-21T03:00:03;27.42;;;19.33;;
55827;SDS011;41758;51.992;5.890;2024-02-21T03:02:29;27.77;;;19.27;;
55827;SDS011;41758;51.992;5.890;2024-02-21T03:04:56;23.90;;;17.30;;
55827;SDS011;41758;51.992;5.890;2024-02-21T03:07:23;26.92;;;18.80;;
55827;SDS011;41758;51.992;5.890;2024-02-21T03:09:50;21.85;;;17.38;;
55827;SDS011;41758;51.992;5.890;2024-02-21T03:12:16;24.65;;;17.55;;
55827;SDS011;41758;51.992;5.890;2024-02-21T03:14:49;33.53;;;20.90;;
55827;SDS011;41758;51.992;5.890;2024-02-21T03:17:15;25.38;;;18.60;;
55827;SDS011;41758;51.992;5.890;2024-02-21T03:19:41;30.55;;;19.73;;
55827;SDS011;41758;51.992;5.890;2024-02-21T03:22:07;25.30;;;18.75;;
55827;SDS011;41758;51.992;5.890;2024-02-21T03:24:32;23.60;;;19.08;;
55827;SDS011;41758;51.992;5.890;2024-02-21T03:26:58;22.48;;;18.27;;
55827;SDS011;41758;51.992;5.890;2024-02-21T03:29:25;24.85;;;17.05;;
55827;SDS011;41758;51.992;5.890;2024-02-21T03:31:50;26.20;;;18.95;;
55827;SDS011;41758;51.992;5.890;2024-02-21T03:34:16;25.33;;;18.00;;
55827;SDS011;41758;51.992;5.890;2024-02-21T03:36:42;26.90;;;18.90;;
55827;SDS011;41758;51.992;5.890;2024-02-21T03:39:07;25.48;;;17.40;;
55827;SDS011;41758;51.992;5.890;2024-02-21T03:41:34;23.50;;;18.42;;
55827;SDS011;41758;51.992;5.890;2024-02-21T03:44:00;26.63;;;18.13;;
55827;SDS011;41758;51.992;5.890;2024-02-21T03:46:26;25.88;;;17.77;;
55827;SDS011;41758;51.992;5.890;2024-02-21T03:48:52;20.75;;;15.52;;
55827;SDS011;41758;51.992;5.890;2024-02-21T03:51:18;27.45;;;16.88;;
55827;SDS011;41758;51.992;5.890;2024-02-21T03:53:44;23.35;;;17.00;;
55827;SDS011;41758;51.992;5.890;2024-02-21T03:56:10;23.55;;;16.45;;
55827;SDS011;41758;51.992;5.890;2024-02-21T03:58:35;19.67;;;15.68;;
55827;SDS011;41758;51.992;5.890;2024-02-21T04:01:01;21.17;;;14.65;;
55827;SDS011;41758;51.992;5.890;2024-02-21T04:03:27;22.83;;;15.40;;
55827;SDS011;41758;51.992;5.890;2024-02-21T04:05:54;22.25;;;15.90;;
55827;SDS011;41758;51.992;5.890;2024-02-21T04:08:20;18.00;;;14.45;;
55827;SDS011;41758;51.992;5.890;2024-02-21T04:10:45;22.95;;;16.15;;
55827;SDS011;41758;51.992;5.890;2024-02-21T04:13:12;24.00;;;15.35;;
55827;SDS011;41758;51.992;5.890;2024-02-21T04:15:37;21.13;;;15.48;;
55827;SDS011;41758;51.992;5.890;2024-02-21T04:18:03;18.80;;;13.68;;
55827;SDS011;41758;51.992;5.890;2024-02-21T04:20:29;22.25;;;14.20;;
55827;SDS011;41758;51.992;5.890;2024-02-21T04:22:55;20.10;;;13.35;;
55827;SDS011;41758;51.992;5.890;2024-02-21T04:25:21;17.83;;;13.35;;
55827;SDS011;41758;51.992;5.890;2024-02-21T04:27:47;17.45;;;12.88;;
55827;SDS011;41758;51.992;5.890;2024-02-21T04:30:13;16.45;;;12.10;;
55827;SDS011;41758;51.992;5.890;2024-02-21T04:32:39;19.38;;;13.32;;
55827;SDS011;41758;51.992;5.890;2024-02-21T04:35:05;18.42;;;12.55;;
55827;SDS011;41758;51.992;5.890;2024-02-21T04:37:32;15.05;;;10.93;;
55827;SDS011;41758;51.992;5.890;2024-02-21T04:39:58;18.08;;;12.35;;
55827;SDS011;41758;51.992;5.890;2024-02-21T04:42:23;17.58;;;12.82;;
55827;SDS011;41758;51.992;5.890;2024-02-21T04:44:49;18.33;;;12.18;;
55827;SDS011;41758;51.992;5.890;2024-02-21T04:47:14;14.77;;;11.05;;
55827;SDS011;41758;51.992;5.890;2024-02-21T04:49:40;17.08;;;11.25;;
55827;SDS011;41758;51.992;5.890;2024-02-21T04:52:06;25.08;;;12.95;;
55827;SDS011;41758;51.992;5.890;2024-02-21T04:54:31;18.80;;;12.05;;
55827;SDS011;41758;51.992;5.890;2024-02-21T04:56:57;16.48;;;11.65;;
55827;SDS011;41758;51.992;5.890;2024-02-21T04:59:23;16.52;;;11.18;;
55827;SDS011;41758;51.992;5.890;2024-02-21T05:01:48;19.60;;;11.02;;
55827;SDS011;41758;51.992;5.890;2024-02-21T05:04:14;13.77;;;10.40;;
55827;SDS011;41758;51.992;5.890;2024-02-21T05:06:40;18.73;;;12.43;;
55827;SDS011;41758;51.992;5.890;2024-02-21T05:09:07;14.70;;;10.93;;
55827;SDS011;41758;51.992;5.890;2024-02-21T05:11:36;15.55;;;11.43;;
55827;SDS011;41758;51.992;5.890;2024-02-21T05:14:03;14.95;;;10.82;;
55827;SDS011;41758;51.992;5.890;2024-02-21T05:16:29;12.00;;;10.05;;
55827;SDS011;41758;51.992;5.890;2024-02-21T05:18:56;18.67;;;12.45;;
55827;SDS011;41758;51.992;5.890;2024-02-21T05:21:25;18.17;;;11.95;;
55827;SDS011;41758;51.992;5.890;2024-02-21T05:23:52;18.85;;;11.93;;
55827;SDS011;41758;51.992;5.890;2024-02-21T05:26:21;17.90;;;12.05;;
55827;SDS011;41758;51.992;5.890;2024-02-21T05:28:50;19.80;;;12.80;;
55827;SDS011;41758;51.992;5.890;2024-02-21T05:31:19;18.00;;;13.38;;
55827;SDS011;41758;51.992;5.890;2024-02-21T05:33:46;22.63;;;14.88;;
55827;SDS011;41758;51.992;5.890;2024-02-21T05:36:12;20.23;;;14.50;;
55827;SDS011;41758;51.992;5.890;2024-02-21T05:38:38;19.52;;;13.73;;
55827;SDS011;41758;51.992;5.890;2024-02-21T05:41:04;20.58;;;15.10;;
55827;SDS011;41758;51.992;5.890;2024-02-21T05:43:29;21.08;;;15.10;;
55827;SDS011;41758;51.992;5.890;2024-02-21T05:45:55;20.83;;;15.40;;
55827;SDS011;41758;51.992;5.890;2024-02-21T05:48:21;22.17;;;16.67;;
55827;SDS011;41758;51.992;5.890;2024-02-21T05:50:48;20.17;;;15.07;;
55827;SDS011;41758;51.992;5.890;2024-02-21T05:53:13;18.92;;;14.43;;
55827;SDS011;41758;51.992;5.890;2024-02-21T05:55:39;18.35;;;14.95;;
55827;SDS011;41758;51.992;5.890;2024-02-21T05:58:06;22.73;;;16.38;;
55827;SDS011;41758;51.992;5.890;2024-02-21T06:00:32;25.15;;;17.88;;
55827;SDS011;41758;51.992;5.890;2024-02-21T06:02:58;20.40;;;16.00;;
55827;SDS011;41758;51.992;5.890;2024-02-21T06:05:23;24.63;;;17.25;;
55827;SDS011;41758;51.992;5.890;2024-02-21T06:07:49;25.42;;;17.23;;
55827;SDS011;41758;51.992;5.890;2024-02-21T06:10:15;25.95;;;17.33;;
55827;SDS011;41758;51.992;5.890;2024-02-21T06:12:41;20.65;;;15.85;;
55827;SDS011;41758;51.992;5.890;2024-02-21T06:15:07;19.95;;;16.10;;
55827;SDS011;41758;51.992;5.890;2024-02-21T06:17:33;15.95;;;13.82;;
55827;SDS011;41758;51.992;5.890;2024-02-21T06:19:59;21.02;;;16.02;;
55827;SDS011;41758;51.992;5.890;2024-02-21T06:22:24;20.25;;;15.60;;
55827;SDS011;41758;51.992;5.890;2024-02-21T06:24:50;22.70;;;15.93;;
55827;SDS011;41758;51.992;5.890;2024-02-21T06:27:16;21.42;;;16.30;;
55827;SDS011;41758;51.992;5.890;2024-02-21T06:29:42;23.23;;;15.52;;
55827;SDS011;41758;51.992;5.890;2024-02-21T06:32:07;26.05;;;16.27;;
55827;SDS011;41758;51.992;5.890;2024-02-21T06:34:33;20.33;;;14.82;;
55827;SDS011;41758;51.992;5.890;2024-02-21T06:36:59;21.98;;;15.40;;
55827;SDS011;41758;51.992;5.890;2024-02-21T06:39:25;21.20;;;14.27;;
55827;SDS011;41758;51.992;5.890;2024-02-21T06:41:50;23.67;;;15.00;;
55827;SDS011;41758;51.992;5.890;2024-02-21T06:44:17;21.73;;;13.82;;
55827;SDS011;41758;51.992;5.890;2024-02-21T06:46:43;20.60;;;13.43;;
55827;SDS011;41758;51.992;5.890;2024-02-21T06:49:09;19.90;;;12.93;;
55827;SDS011;41758;51.992;5.890;2024-02-21T06:51:41;22.52;;;13.30;;
55827;SDS011;41758;51.992;5.890;2024-02-21T06:54:07;20.35;;;12.63;;
55827;SDS011;41758;51.992;5.890;2024-02-21T06:56:34;18.58;;;12.88;;
55827;SDS011;41758;51.992;5.890;2024-02-21T06:59:01;17.15;;;11.48;;
55827;SDS011;41758;51.992;5.890;2024-02-21T07:01:28;20.50;;;13.02;;
55827;SDS011;41758;51.992;5.890;2024-02-21T07:03:54;19.20;;;12.77;;
55827;SDS011;41758;51.992;5.890;2024-02-21T07:06:20;21.77;;;12.82;;
55827;SDS011;41758;51.992;5.890;2024-02-21T07:08:45;19.45;;;12.52;;
55827;SDS011;41758;51.992;5.890;2024-02-21T07:11:11;19.35;;;12.90;;
55827;SDS011;41758;51.992;5.890;2024-02-21T07:13:37;20.85;;;12.75;;
55827;SDS011;41758;51.992;5.890;2024-02-21T07:16:02;18.92;;;13.25;;
55827;SDS011;41758;51.992;5.890;2024-02-21T07:18:28;18.08;;;12.52;;
55827;SDS011;41758;51.992;5.890;2024-02-21T07:20:54;21.95;;;12.80;;
55827;SDS011;41758;51.992;5.890;2024-02-21T07:23:20;18.90;;;12.35;;
55827;SDS011;41758;51.992;5.890;2024-02-21T07:25:46;19.42;;;12.00;;
55827;SDS011;41758;51.992;5.890;2024-02-21T07:28:11;21.00;;;13.82;;
55827;SDS011;41758;51.992;5.890;2024-02-21T07:30:38;20.70;;;12.35;;
55827;SDS011;41758;51.992;5.890;2024-02-21T07:33:04;23.50;;;13.38;;
55827;SDS011;41758;51.992;5.890;2024-02-21T07:35:30;17.27;;;11.38;;
55827;SDS011;41758;51.992;5.890;2024-02-21T07:37:55;19.88;;;13.25;;
55827;SDS011;41758;51.992;5.890;2024-02-21T07:40:21;18.50;;;12.23;;
55827;SDS011;41758;51.992;5.890;2024-02-21T07:42:47;21.13;;;13.00;;
55827;SDS011;41758;51.992;5.890;2024-02-21T07:45:12;18.77;;;12.75;;
55827;SDS011;41758;51.992;5.890;2024-02-21T07:47:38;18.70;;;13.65;;
55827;SDS011;41758;51.992;5.890;2024-02-21T07:50:04;23.00;;;13.20;;
55827;SDS011;41758;51.992;5.890;2024-02-21T07:52:31;21.08;;;13.18;;
55827;SDS011;41758;51.992;5.890;2024-02-21T07:54:56;19.40;;;12.77;;
55827;SDS011;41758;51.992;5.890;2024-02-21T07:57:22;15.38;;;11.38;;
55827;SDS011;41758;51.992;5.890;2024-02-21T07:59:48;20.70;;;11.80;;
55827;SDS011;41758;51.992;5.890;2024-02-21T08:02:14;20.55;;;11.25;;
55827;SDS011;41758;51.992;5.890;2024-02-21T08:04:40;19.20;;;12.07;;
55827;SDS011;41758;51.992;5.890;2024-02-21T08:07:06;19.27;;;12.48;;
55827;SDS011;41758;51.992;5.890;2024-02-21T08:09:32;18.10;;;12.05;;
55827;SDS011;41758;51.992;5.890;2024-02-21T08:11:58;21.08;;;12.95;;
55827;SDS011;41758;51.992;5.890;2024-02-21T08:14:24;20.17;;;13.18;;
55827;SDS011;41758;51.992;5.890;2024-02-21T08:16:50;20.70;;;12.73;;
55827;SDS011;41758;51.992;5.890;2024-02-21T08:19:18;16.52;;;11.57;;
55827;SDS011;41758;51.992;5.890;2024-02-21T08:21:44;22.60;;;12.73;;
55827;SDS011;41758;51.992;5.890;2024-02-21T08:24:12;19.60;;;12.55;;
55827;SDS011;41758;51.992;5.890;2024-02-21T08:26:43;19.92;;;12.38;;
55827;SDS011;41758;51.992;5.890;2024-02-21T08:29:12;17.77;;;13.02;;
55827;SDS011;41758;51.992;5.890;2024-02-21T08:31:38;20.05;;;12.82;;
55827;SDS011;41758;51.992;5.890;2024-02-21T08:34:04;23.23;;;14.25;;
55827;SDS011;41758;51.992;5.890;2024-02-21T08:38:55;21.40;;;13.75;;
55827;SDS011;41758;51.992;5.890;2024-02-21T08:41:22;19.77;;;12.75;;
55827;SDS011;41758;51.992;5.890;2024-02-21T08:43:49;19.75;;;13.40;;
55827;SDS011;41758;51.992;5.890;2024-02-21T08:46:16;20.25;;;12.73;;
55827;SDS011;41758;51.992;5.890;2024-02-21T08:48:42;21.70;;;13.60;;
55827;SDS011;41758;51.992;5.890;2024-02-21T08:51:08;18.95;;;13.32;;
55827;SDS011;41758;51.992;5.890;2024-02-21T08:53:34;19.25;;;13.30;;
55827;SDS011;41758;51.992;5.890;2024-02-21T08:56:00;19.70;;;14.45;;
55827;SDS011;41758;51.992;5.890;2024-02-21T08:58:25;19.10;;;13.50;;
55827;SDS011;41758;51.992;5.890;2024-02-21T09:00:51;20.67;;;13.18;;
55827;SDS011;41758;51.992;5.890;2024-02-21T09:03:17;17.23;;;13.00;;
55827;SDS011;41758;51.992;5.890;2024-02-21T09:05:45;19.70;;;13.38;;
55827;SDS011;41758;51.992;5.890;2024-02-21T09:08:11;17.55;;;12.82;;
55827;SDS011;41758;51.992;5.890;2024-02-21T09:10:37;20.02;;;12.85;;
55827;SDS011;41758;51.992;5.890;2024-02-21T09:13:04;21.95;;;12.88;;
55827;SDS011;41758;51.992;5.890;2024-02-21T09:15:30;18.40;;;13.48;;
55827;SDS011;41758;51.992;5.890;2024-02-21T09:17:56;20.13;;;12.45;;
55827;SDS011;41758;51.992;5.890;2024-02-21T09:20:22;17.10;;;12.75;;
55827;SDS011;41758;51.992;5.890;2024-02-21T09:22:48;18.58;;;12.13;;
55827;SDS011;41758;51.992;5.890;2024-02-21T09:25:14;18.63;;;12.75;;
55827;SDS011;41758;51.992;5.890;2024-02-21T09:27:40;15.75;;;12.02;;
55827;SDS011;41758;51.992;5.890;2024-02-21T09:30:06;19.60;;;13.13;;
55827;SDS011;41758;51.992;5.890;2024-02-21T09:32:32;18.27;;;11.52;;
55827;SDS011;41758;51.992;5.890;2024-02-21T09:34:58;15.95;;;11.10;;
55827;SDS011;41758;51.992;5.890;2024-02-21T09:37:23;16.00;;;11.32;;
55827;SDS011;41758;51.992;5.890;2024-02-21T09:39:49;15.15;;;11.25;;
55827;SDS011;41758;51.992;5.890;2024-02-21T09:42:19;16.15;;;11.10;;
55827;SDS011;41758;51.992;5.890;2024-02-21T09:44:46;15.40;;;11.05;;
55827;SDS011;41758;51.992;5.890;2024-02-21T09:47:16;18.00;;;11.07;;
55827;SDS011;41758;51.992;5.890;2024-02-21T09:50:01;13.95;;;10.45;;
55827;SDS011;41758;51.992;5.890;2024-02-21T09:52:29;14.13;;;9.95;;
55827;SDS011;41758;51.992;5.890;2024-02-21T09:54:56;14.70;;;10.40;;
55827;SDS011;41758;51.992;5.890;2024-02-21T09:57:23;13.82;;;10.75;;
55827;SDS011;41758;51.992;5.890;2024-02-21T09:59:50;15.40;;;11.00;;
55827;SDS011;41758;51.992;5.890;2024-02-21T10:02:17;13.18;;;10.32;;
55827;SDS011;41758;51.992;5.890;2024-02-21T10:04:43;14.13;;;9.95;;
55827;SDS011;41758;51.992;5.890;2024-02-21T10:07:09;14.63;;;10.32;;
55827;SDS011;41758;51.992;5.890;2024-02-21T10:09:36;15.55;;;10.90;;
55827;SDS011;41758;51.992;5.890;2024-02-21T10:14:35;14.65;;;10.10;;
55827;SDS011;41758;51.992;5.890;2024-02-21T10:17:00;14.63;;;10.48;;
55827;SDS011;41758;51.992;5.890;2024-02-21T10:19:27;14.25;;;10.30;;
55827;SDS011;41758;51.992;5.890;2024-02-21T10:22:00;13.65;;;10.70;;
55827;SDS011;41758;51.992;5.890;2024-02-21T10:24:32;13.63;;;10.15;;
55827;SDS011;41758;51.992;5.890;2024-02-21T10:27:03;12.57;;;10.00;;
55827;SDS011;41758;51.992;5.890;2024-02-21T10:29:33;13.53;;;10.33;;
55827;SDS011;41758;51.992;5.890;2024-02-21T10:32:13;12.55;;;10.00;;
55827;SDS011;41758;51.992;5.890;2024-02-21T10:34:40;11.50;;;8.88;;
55827;SDS011;41758;51.992;5.890;2024-02-21T10:37:07;11.27;;;9.07;;
55827;SDS011;41758;51.992;5.890;2024-02-21T10:39:40;11.07;;;8.57;;
55827;SDS011;41758;51.992;5.890;2024-02-21T10:42:07;11.27;;;9.18;;
55827;SDS011;41758;51.992;5.890;2024-02-21T10:44:38;10.20;;;8.82;;
55827;SDS011;41758;51.992;5.890;2024-02-21T10:47:07;12.60;;;8.93;;
55827;SDS011;41758;51.992;5.890;2024-02-21T10:49:36;13.13;;;8.70;;
55827;SDS011;41758;51.992;5.890;2024-02-21T10:55:21;10.80;;;8.65;;
55827;SDS011;41758;51.992;5.890;2024-02-21T10:57:59;11.38;;;8.77;;
55827;SDS011;41758;51.992;5.890;2024-02-21T11:00:25;12.10;;;9.77;;
55827;SDS011;41758;51.992;5.890;2024-02-21T11:02:56;10.05;;;8.95;;
55827;SDS011;41758;51.992;5.890;2024-02-21T11:05:23;11.77;;;9.43;;
55827;SDS011;41758;51.992;5.890;2024-02-21T11:07:49;11.50;;;9.50;;
55827;SDS011;41758;51.992;5.890;2024-02-21T11:10:23;10.98;;;8.82;;
55827;SDS011;41758;51.992;5.890;2024-02-21T11:12:52;13.93;;;10.77;;
55827;SDS011;41758;51.992;5.890;2024-02-21T11:15:24;74.53;;;59.72;;
55827;SDS011;41758;51.992;5.890;2024-02-21T11:17:55;23.70;;;18.48;;
55827;SDS011;41758;51.992;5.890;2024-02-21T11:20:21;16.95;;;13.98;;
55827;SDS011;41758;51.992;5.890;2024-02-21T11:23:00;13.45;;;11.55;;
55827;SDS011;41758;51.992;5.890;2024-02-21T11:25:26;12.90;;;11.30;;
55827;SDS011;41758;51.992;5.890;2024-02-21T11:28:03;15.77;;;12.02;;
55827;SDS011;41758;51.992;5.890;2024-02-21T11:30:30;16.45;;;11.43;;
55827;SDS011;41758;51.992;5.890;2024-02-21T11:33:05;16.08;;;11.73;;
55827;SDS011;41758;51.992;5.890;2024-02-21T11:35:32;14.45;;;11.02;;
55827;SDS011;41758;51.992;5.890;2024-02-21T11:38:12;14.02;;;10.68;;
55827;SDS011;41758;51.992;5.890;2024-02-21T11:40:43;14.75;;;11.00;;
55827;SDS011;41758;51.992;5.890;2024-02-21T11:43:10;14.88;;;10.63;;
55827;SDS011;41758;51.992;5.890;2024-02-21T11:45:36;14.68;;;10.57;;
55827;SDS011;41758;51.992;5.890;2024-02-21T11:48:01;15.20;;;10.45;;
55827;SDS011;41758;51.992;5.890;2024-02-21T11:50:30;14.30;;;10.57;;
55827;SDS011;41758;51.992;5.890;2024-02-21T11:52:56;14.48;;;10.05;;
55827;SDS011;41758;51.992;5.890;2024-02-21T11:55:22;13.88;;;10.30;;
55827;SDS011;41758;51.992;5.890;2024-02-21T11:57:48;12.05;;;9.98;;
55827;SDS011;41758;51.992;5.890;2024-02-21T12:00:15;14.15;;;10.00;;
55827;SDS011;41758;51.992;5.890;2024-02-21T12:02:47;15.02;;;10.15;;
55827;SDS011;41758;51.992;5.890;2024-02-21T12:05:16;16.73;;;10.13;;
55827;SDS011;41758;51.992;5.890;2024-02-21T12:07:41;13.65;;;9.70;;
55827;SDS011;41758;51.992;5.890;2024-02-21T12:10:08;13.50;;;10.40;;
55827;SDS011;41758;51.992;5.890;2024-02-21T12:12:37;13.88;;;10.15;;
55827;SDS011;41758;51.992;5.890;2024-02-21T12:15:04;12.90;;;10.48;;
55827;SDS011;41758;51.992;5.890;2024-02-21T12:17:32;12.15;;;9.90;;
55827;SDS011;41758;51.992;5.890;2024-02-21T12:19:59;14.30;;;9.68;;
55827;SDS011;41758;51.992;5.890;2024-02-21T12:22:25;13.13;;;9.95;;
55827;SDS011;41758;51.992;5.890;2024-02-21T12:24:52;14.02;;;10.50;;
55827;SDS011;41758;51.992;5.890;2024-02-21T12:27:18;13.45;;;9.90;;
55827;SDS011;41758;51.992;5.890;2024-02-21T12:29:43;12.85;;;9.15;;
55827;SDS011;41758;51.992;5.890;2024-02-21T12:32:09;14.10;;;9.60;;
55827;SDS011;41758;51.992;5.890;2024-02-21T12:34:35;17.58;;;9.73;;
55827;SDS011;41758;51.992;5.890;2024-02-21T12:37:01;12.30;;;9.20;;
55827;SDS011;41758;51.992;5.890;2024-02-21T12:39:28;13.68;;;9.55;;
55827;SDS011;41758;51.992;5.890;2024-02-21T12:41:54;11.50;;;8.77;;
55827;SDS011;41758;51.992;5.890;2024-02-21T12:44:21;11.70;;;8.73;;
55827;SDS011;41758;51.992;5.890;2024-02-21T12:46:47;12.35;;;8.90;;
55827;SDS011;41758;51.992;5.890;2024-02-21T12:49:17;12.23;;;8.98;;
55827;SDS011;41758;51.992;5.890;2024-02-21T12:51:43;12.95;;;8.70;;
55827;SDS011;41758;51.992;5.890;2024-02-21T12:54:12;12.00;;;8.20;;
55827;SDS011;41758;51.992;5.890;2024-02-21T12:56:38;12.35;;;8.43;;
55827;SDS011;41758;51.992;5.890;2024-02-21T12:59:05;13.95;;;8.73;;
55827;SDS011;41758;51.992;5.890;2024-02-21T13:01:34;10.93;;;8.00;;
55827;SDS011;41758;51.992;5.890;2024-02-21T13:04:01;11.95;;;8.25;;
55827;SDS011;41758;51.992;5.890;2024-02-21T13:06:26;12.77;;;7.85;;
55827;SDS011;41758;51.992;5.890;2024-02-21T13:08:53;10.80;;;8.10;;
55827;SDS011;41758;51.992;5.890;2024-02-21T13:11:18;16.73;;;8.63;;
55827;SDS011;41758;51.992;5.890;2024-02-21T13:13:44;12.63;;;8.32;;
55827;SDS011;41758;51.992;5.890;2024-02-21T13:16:10;12.50;;;7.65;;
55827;SDS011;41758;51.992;5.890;2024-02-21T13:18:36;13.30;;;7.70;;
55827;SDS011;41758;51.992;5.890;2024-02-21T13:21:03;12.35;;;7.85;;
55827;SDS011;41758;51.992;5.890;2024-02-21T13:23:30;11.30;;;8.15;;
55827;SDS011;41758;51.992;5.890;2024-02-21T13:25:55;13.02;;;7.70;;
55827;SDS011;41758;51.992;5.890;2024-02-21T13:28:21;12.93;;;8.10;;
55827;SDS011;41758;51.992;5.890;2024-02-21T13:30:47;12.05;;;7.40;;
55827;SDS011;41758;51.992;5.890;2024-02-21T13:33:13;11.18;;;7.32;;
55827;SDS011;41758;51.992;5.890;2024-02-21T13:35:38;11.45;;;7.18;;
55827;SDS011;41758;51.992;5.890;2024-02-21T13:38:04;13.77;;;7.45;;
55827;SDS011;41758;51.992;5.890;2024-02-21T13:40:30;12.70;;;8.73;;
55827;SDS011;41758;51.992;5.890;2024-02-21T13:42:56;13.73;;;8.60;;
55827;SDS011;41758;51.992;5.890;2024-02-21T13:45:21;12.93;;;7.72;;
55827;SDS011;41758;51.992;5.890;2024-02-21T13:47:47;12.43;;;7.32;;
55827;SDS011;41758;51.992;5.890;2024-02-21T13:50:13;14.75;;;8.68;;
55827;SDS011;41758;51.992;5.890;2024-02-21T13:52:42;13.65;;;7.70;;
55827;SDS011;41758;51.992;5.890;2024-02-21T13:55:08;12.25;;;7.50;;
55827;SDS011;41758;51.992;5.890;2024-02-21T13:57:37;10.93;;;7.25;;
55827;SDS011;41758;51.992;5.890;2024-02-21T14:00:03;12.60;;;7.43;;
55827;SDS011;41758;51.992;5.890;2024-02-21T14:02:38;11.75;;;7.32;;
55827;SDS011;41758;51.992;5.890;2024-02-21T14:05:04;10.98;;;7.40;;
55827;SDS011;41758;51.992;5.890;2024-02-21T14:07:31;10.68;;;7.25;;
55827;SDS011;41758;51.992;5.890;2024-02-21T14:09:58;12.90;;;7.75;;
55827;SDS011;41758;51.992;5.890;2024-02-21T14:12:24;11.95;;;7.80;;
55827;SDS011;41758;51.992;5.890;2024-02-21T14:14:50;13.02;;;7.18;;
55827;SDS011;41758;51.992;5.890;2024-02-21T14:17:16;11.70;;;7.70;;
55827;SDS011;41758;51.992;5.890;2024-02-21T14:19:43;10.18;;;6.80;;
55827;SDS011;41758;51.992;5.890;2024-02-21T14:22:08;10.90;;;7.43;;
55827;SDS011;41758;51.992;5.890;2024-02-21T14:24:36;10.57;;;6.30;;
55827;SDS011;41758;51.992;5.890;2024-02-21T14:27:02;10.25;;;6.45;;
55827;SDS011;41758;51.992;5.890;2024-02-21T14:29:28;10.65;;;5.55;;
55827;SDS011;41758;51.992;5.890;2024-02-21T14:31:54;9.55;;;5.03;;